createdAt,value
2023-02-14T00:00:30.588Z,23.70
2023-02-14T00:02:57.368Z,23.42
2023-02-14T00:05:24.149Z,23.05
2023-02-14T00:07:50.897Z,22.88
2023-02-14T00:10:18.029Z,23.35
2023-02-14T00:12:44.669Z,24.40
2023-02-14T00:15:23.734Z,22.20
2023-02-14T00:17:55.240Z,22.83
2023-02-14T00:20:23.138Z,24.35
2023-02-14T00:22:49.965Z,22.25
2023-02-14T00:25:17.045Z,22.00
2023-02-14T00:27:43.796Z,24.17
2023-02-14T00:30:12.648Z,24.35
2023-02-14T00:32:40.859Z,22.65
2023-02-14T00:35:08.466Z,23.02
2023-02-14T00:37:35.593Z,21.80
2023-02-14T00:40:02.359Z,22.63
2023-02-14T00:42:29.101Z,20.73
2023-02-14T00:44:55.737Z,22.60
2023-02-14T00:47:22.603Z,21.20
2023-02-14T00:49:49.269Z,23.23
2023-02-14T00:52:15.983Z,22.60
2023-02-14T00:54:42.592Z,21.98
2023-02-14T00:57:09.400Z,22.48
2023-02-14T00:59:36.092Z,23.08
2023-02-14T01:02:03.072Z,22.00
2023-02-14T01:04:29.724Z,22.30
2023-02-14T01:06:56.383Z,21.55
2023-02-14T01:09:23.020Z,24.00
2023-02-14T01:11:49.716Z,22.75
2023-02-14T01:14:16.371Z,22.27
2023-02-14T01:16:43.085Z,21.42
2023-02-14T01:19:09.852Z,21.23
2023-02-14T01:21:36.718Z,21.75
2023-02-14T01:24:06.259Z,21.33
2023-02-14T01:26:34.216Z,21.20
2023-02-14T01:29:01.099Z,21.08
2023-02-14T01:31:30.236Z,20.60
2023-02-14T01:33:57.756Z,21.57
2023-02-14T01:36:33.806Z,21.42
2023-02-14T01:39:04.108Z,21.95
2023-02-14T01:41:33.789Z,20.67
2023-02-14T01:44:28.707Z,21.80
2023-02-14T01:46:56.438Z,18.83
2023-02-14T01:49:35.603Z,18.92
2023-02-14T01:52:17.756Z,20.53
2023-02-14T01:54:57.844Z,19.73
2023-02-14T02:00:17.566Z,17.83
2023-02-14T02:02:44.664Z,17.83
2023-02-14T02:05:12.068Z,16.38
2023-02-14T02:07:39.832Z,18.50
2023-02-14T02:10:08.012Z,18.45
2023-02-14T02:12:35.704Z,17.73
2023-02-14T02:15:04.097Z,17.80
2023-02-14T02:18:06.992Z,16.27
2023-02-14T02:21:23.767Z,16.58
2023-02-14T02:24:05.456Z,16.02
2023-02-14T02:27:04.055Z,15.80
2023-02-14T02:30:04.526Z,14.30
2023-02-14T02:32:55.784Z,16.20
2023-02-14T02:35:50.619Z,16.17
2023-02-14T02:38:24.932Z,14.98
2023-02-14T02:41:24.702Z,14.82
2023-02-14T02:44:09.079Z,15.98
2023-02-14T02:46:51.425Z,15.98
2023-02-14T02:49:45.763Z,16.27
2023-02-14T02:53:08.581Z,15.55
2023-02-14T02:55:59.912Z,16.92
2023-02-14T02:58:35.131Z,16.92
2023-02-14T03:01:12.472Z,17.02
2023-02-14T03:03:59.600Z,16.90
2023-02-14T03:06:26.289Z,19.83
2023-02-14T03:08:52.927Z,20.25
2023-02-14T03:11:19.814Z,19.48
2023-02-14T03:14:17.210Z,18.83
2023-02-14T03:17:07.474Z,21.85
2023-02-14T03:20:05.848Z,21.63
2023-02-14T03:22:50.476Z,22.42
2023-02-14T03:25:41.571Z,18.38
2023-02-14T03:28:28.322Z,16.98
2023-02-14T03:31:06.967Z,21.27
2023-02-14T03:33:39.181Z,23.60
2023-02-14T03:36:35.769Z,23.50
2023-02-14T03:39:07.909Z,22.63
2023-02-14T03:41:41.836Z,22.48
2023-02-14T03:44:11.409Z,22.80
2023-02-14T03:46:51.240Z,22.33
2023-02-14T03:49:29.031Z,22.40
2023-02-14T03:51:58.488Z,20.92
2023-02-14T03:54:27.105Z,22.33
2023-02-14T03:57:04.425Z,23.80
2023-02-14T03:59:31.279Z,23.65
2023-02-14T04:02:07.934Z,21.65
2023-02-14T04:04:38.779Z,21.65
2023-02-14T04:07:24.476Z,20.42
2023-02-14T04:09:51.588Z,21.90
2023-02-14T04:12:29.334Z,22.05
2023-02-14T04:15:02.569Z,22.35
2023-02-14T04:17:47.915Z,22.60
2023-02-14T04:20:14.570Z,25.10
2023-02-14T04:22:41.194Z,24.58
2023-02-14T04:25:07.916Z,26.40
2023-02-14T04:27:34.693Z,25.52
2023-02-14T04:30:01.381Z,26.80
2023-02-14T04:32:28.065Z,23.13
2023-02-14T04:34:54.930Z,21.85
2023-02-14T04:37:21.677Z,19.15
2023-02-14T04:39:48.868Z,19.98
2023-02-14T04:42:16.060Z,19.65
2023-02-14T04:44:42.793Z,20.48
2023-02-14T04:47:09.544Z,19.65
2023-02-14T04:49:36.360Z,19.02
2023-02-14T04:52:04.222Z,18.65
2023-02-14T04:54:31.213Z,19.52
2023-02-14T04:56:57.994Z,19.63
2023-02-14T04:59:25.232Z,18.90
2023-02-14T05:01:52.795Z,18.23
2023-02-14T05:04:20.038Z,19.60
2023-02-14T05:06:46.831Z,18.50
2023-02-14T05:09:13.491Z,18.35
2023-02-14T05:11:40.159Z,17.20
2023-02-14T05:14:06.872Z,18.80
2023-02-14T05:16:33.576Z,17.77
2023-02-14T05:19:00.259Z,16.52
2023-02-14T05:21:28.526Z,16.85
2023-02-14T05:23:55.141Z,16.95
2023-02-14T05:26:21.787Z,18.75
2023-02-14T05:28:48.417Z,15.98
2023-02-14T05:31:15.250Z,14.80
2023-02-14T05:33:41.994Z,16.50
2023-02-14T05:36:08.821Z,16.58
2023-02-14T05:38:35.473Z,16.35
2023-02-14T05:41:02.745Z,17.23
2023-02-14T05:43:30.362Z,18.73
2023-02-14T05:45:57.943Z,19.38
2023-02-14T05:48:25.136Z,18.88
2023-02-14T05:50:51.888Z,21.40
2023-02-14T05:53:18.669Z,23.27
2023-02-14T05:55:45.366Z,21.58
2023-02-14T05:58:12.668Z,20.60
2023-02-14T06:00:41.219Z,18.77
2023-02-14T06:03:08.454Z,20.45
2023-02-14T06:05:35.307Z,19.80
2023-02-14T06:08:02.083Z,20.65
2023-02-14T06:10:29.074Z,20.20
2023-02-14T06:12:55.925Z,20.00
2023-02-14T06:15:23.189Z,20.45
2023-02-14T06:17:57.070Z,20.33
2023-02-14T06:20:25.010Z,21.83
2023-02-14T06:22:52.201Z,20.48
2023-02-14T06:25:19.182Z,17.83
2023-02-14T06:27:48.271Z,28.10
2023-02-14T06:32:43.284Z,17.52
2023-02-14T06:35:10.412Z,16.60
2023-02-14T06:37:38.854Z,16.15
2023-02-14T06:40:06.220Z,16.13
2023-02-14T06:42:32.922Z,16.05
2023-02-14T06:44:59.622Z,15.45
2023-02-14T06:47:26.305Z,17.40
2023-02-14T06:49:53.005Z,15.32
2023-02-14T06:52:20.036Z,17.00
2023-02-14T06:54:46.712Z,17.08
2023-02-14T06:57:13.541Z,20.90
2023-02-14T06:59:40.347Z,21.27
2023-02-14T07:02:07.189Z,23.02
2023-02-14T07:04:33.902Z,26.80
2023-02-14T07:07:01.441Z,26.33
2023-02-14T07:09:28.124Z,25.23
2023-02-14T07:11:54.783Z,22.98
2023-02-14T07:14:21.564Z,22.80
2023-02-14T07:16:48.209Z,22.05
2023-02-14T07:19:14.916Z,25.98
2023-02-14T07:21:41.632Z,24.48
2023-02-14T07:24:08.368Z,32.25
2023-02-14T07:26:35.150Z,33.83
2023-02-14T07:29:01.792Z,35.60
2023-02-14T07:31:28.533Z,36.35
2023-02-14T07:33:55.305Z,30.08
2023-02-14T07:36:21.982Z,27.60
2023-02-14T07:38:48.610Z,26.55
2023-02-14T07:41:15.901Z,28.00
2023-02-14T07:43:42.542Z,27.25
2023-02-14T07:46:09.228Z,27.50
2023-02-14T07:48:36.038Z,29.50
2023-02-14T07:51:03.400Z,26.60
2023-02-14T07:53:30.792Z,25.55
2023-02-14T07:55:57.571Z,25.70
2023-02-14T07:58:24.222Z,27.58
2023-02-14T08:00:51.243Z,28.10
2023-02-14T08:03:18.541Z,30.30
2023-02-14T08:05:56.920Z,31.20
2023-02-14T08:08:29.285Z,31.63
2023-02-14T08:10:56.183Z,32.22
2023-02-14T08:13:23.318Z,33.65
2023-02-14T08:16:05.094Z,35.90
2023-02-14T08:18:42.069Z,32.75
2023-02-14T08:21:10.920Z,33.20
2023-02-14T08:23:38.537Z,32.53
2023-02-14T08:26:05.414Z,30.17
2023-02-14T08:28:33.181Z,33.30
2023-02-14T08:31:00.571Z,31.98
2023-02-14T08:33:27.601Z,32.63
2023-02-14T08:35:54.552Z,30.08
2023-02-14T08:38:21.371Z,27.45
2023-02-14T08:40:48.392Z,25.77
2023-02-14T08:43:15.451Z,28.63
2023-02-14T08:45:45.079Z,25.88
2023-02-14T08:48:13.047Z,24.30
2023-02-14T08:50:40.459Z,29.42
2023-02-14T08:53:09.439Z,28.60
2023-02-14T08:55:36.374Z,31.17
2023-02-14T08:58:03.807Z,30.05
2023-02-14T09:00:31.442Z,26.13
2023-02-14T09:02:59.073Z,26.52
2023-02-14T09:05:26.522Z,27.77
2023-02-14T09:07:55.917Z,26.98
2023-02-14T09:10:22.846Z,25.17
2023-02-14T09:12:49.492Z,25.50
2023-02-14T09:15:16.196Z,27.30
2023-02-14T09:17:42.857Z,27.50
2023-02-14T09:20:11.544Z,25.83
2023-02-14T09:22:38.621Z,26.70
2023-02-14T09:25:06.204Z,26.20
2023-02-14T09:27:32.997Z,27.10
2023-02-14T09:29:59.717Z,28.73
2023-02-14T09:32:27.225Z,24.88
2023-02-14T09:34:53.990Z,26.58
2023-02-14T09:37:39.342Z,30.15
2023-02-14T09:40:06.546Z,27.20
2023-02-14T09:43:18.560Z,26.83
2023-02-14T09:45:52.964Z,24.95
2023-02-14T09:48:33.993Z,25.45
2023-02-14T09:51:05.629Z,26.17
2023-02-14T09:53:40.766Z,25.50
2023-02-14T09:56:42.722Z,25.63
2023-02-14T09:59:26.114Z,25.55
2023-02-14T10:02:21.602Z,28.38
2023-02-14T10:05:18.357Z,26.52
2023-02-14T10:08:08.952Z,27.13
2023-02-14T10:10:44.184Z,24.55
2023-02-14T10:13:31.711Z,25.17
2023-02-14T10:16:18.576Z,27.27
2023-02-14T10:19:17.337Z,26.70
2023-02-14T10:22:00.707Z,28.23
2023-02-14T10:24:35.519Z,29.50
2023-02-14T10:27:11.093Z,28.13
2023-02-14T10:29:38.114Z,27.77
2023-02-14T10:32:09.781Z,28.73
2023-02-14T10:34:47.956Z,28.25
2023-02-14T10:37:53.091Z,27.27
2023-02-14T10:40:28.632Z,29.00
2023-02-14T10:43:22.764Z,30.25
2023-02-14T10:45:52.426Z,29.40
2023-02-14T10:48:38.061Z,30.17
2023-02-14T10:51:22.173Z,31.48
2023-02-14T10:54:00.540Z,34.05
2023-02-14T10:56:37.326Z,48.30
2023-02-14T10:59:19.791Z,47.80
2023-02-14T11:01:47.581Z,43.67
2023-02-14T11:04:16.926Z,31.52
2023-02-14T11:06:43.657Z,30.70
2023-02-14T11:09:12.176Z,29.52
2023-02-14T11:11:44.320Z,35.10
2023-02-14T11:14:28.263Z,32.83
2023-02-14T11:16:56.527Z,28.42
2023-02-14T11:19:30.151Z,27.33
2023-02-14T11:21:59.421Z,26.30
2023-02-14T11:24:39.313Z,26.90
2023-02-14T11:27:11.925Z,30.33
2023-02-14T11:29:41.638Z,31.35
2023-02-14T11:32:13.661Z,28.50
2023-02-14T11:34:54.397Z,30.17
2023-02-14T11:37:25.108Z,27.65
2023-02-14T11:39:54.986Z,26.33
2023-02-14T11:42:37.130Z,32.55
2023-02-14T11:45:05.353Z,36.58
2023-02-14T11:47:34.447Z,29.13
2023-02-14T11:50:10.568Z,34.47
2023-02-14T11:52:52.576Z,33.10
2023-02-14T11:55:26.873Z,30.00
2023-02-14T11:57:54.962Z,27.08
2023-02-14T12:00:23.392Z,28.30
2023-02-14T12:02:51.494Z,28.40
2023-02-14T12:05:27.027Z,29.00
2023-02-14T12:07:57.263Z,28.75
2023-02-14T12:12:55.380Z,31.73
2023-02-14T12:15:40.397Z,30.88
2023-02-14T12:18:23.119Z,29.92
2023-02-14T12:21:03.245Z,28.23
2023-02-14T12:26:11.930Z,28.88
2023-02-14T12:28:49.926Z,28.95
2023-02-14T12:31:17.411Z,28.88
2023-02-14T12:33:46.363Z,30.88
2023-02-14T12:36:49.384Z,31.45
2023-02-14T12:39:16.036Z,29.90
2023-02-14T12:42:17.477Z,27.75
2023-02-14T12:44:57.882Z,28.80
2023-02-14T12:47:57.613Z,27.85
2023-02-14T12:50:42.922Z,28.23
2023-02-14T12:53:35.334Z,28.35
2023-02-14T12:56:32.589Z,28.75
2023-02-14T12:59:09.837Z,26.27
2023-02-14T13:02:05.194Z,25.42
2023-02-14T13:04:53.821Z,26.08
2023-02-14T13:07:39.117Z,26.65
2023-02-14T13:10:14.592Z,28.45
2023-02-14T13:12:50.771Z,27.50
2023-02-14T13:15:45.374Z,27.88
2023-02-14T13:18:32.576Z,27.15
2023-02-14T13:21:03.183Z,28.73
2023-02-14T13:23:37.287Z,28.50
2023-02-14T13:26:05.847Z,29.83
2023-02-14T13:28:33.288Z,30.50
2023-02-14T13:31:01.940Z,28.45
2023-02-14T13:33:35.243Z,29.92
2023-02-14T13:36:07.867Z,29.95
2023-02-14T13:38:44.083Z,28.45
2023-02-14T13:41:11.691Z,30.77
2023-02-14T13:44:33.651Z,30.50
2023-02-14T13:47:00.328Z,30.55
2023-02-14T13:49:33.315Z,29.33
2023-02-14T13:52:06.222Z,29.45
2023-02-14T13:54:48.726Z,31.40
2023-02-14T13:57:33.964Z,30.52
2023-02-14T14:00:21.607Z,30.30
2023-02-14T14:02:57.703Z,31.52
2023-02-14T14:05:30.870Z,30.88
2023-02-14T14:08:16.393Z,32.45
2023-02-14T14:11:11.156Z,31.92
2023-02-14T14:13:40.833Z,34.67
2023-02-14T14:16:24.149Z,33.40
2023-02-14T14:19:10.713Z,35.42
2023-02-14T14:21:44.068Z,36.00
2023-02-14T14:24:25.992Z,36.63
2023-02-14T14:27:19.491Z,35.17
2023-02-14T14:29:53.325Z,36.17
2023-02-14T14:32:36.298Z,35.47
2023-02-14T14:35:05.199Z,35.97
2023-02-14T14:37:34.968Z,35.97
2023-02-14T14:40:05.246Z,35.70
2023-02-14T14:45:22.752Z,36.10
2023-02-14T14:48:03.161Z,36.35
2023-02-14T14:50:33.568Z,36.70
2023-02-14T14:53:05.347Z,37.47
2023-02-14T14:55:36.001Z,38.42
2023-02-14T14:58:05.498Z,36.83
2023-02-14T15:00:34.977Z,37.42
2023-02-14T15:03:17.277Z,37.05
2023-02-14T15:05:43.885Z,35.88
2023-02-14T15:08:30.944Z,37.22
2023-02-14T15:11:03.682Z,38.03
2023-02-14T15:13:53.416Z,38.63
2023-02-14T15:16:34.994Z,37.40
2023-02-14T15:19:10.304Z,36.35
2023-02-14T15:21:40.253Z,37.88
2023-02-14T15:24:13.843Z,37.83
2023-02-14T15:26:44.121Z,37.15
2023-02-14T15:31:57.319Z,36.45
2023-02-14T15:34:29.329Z,36.65
2023-02-14T15:37:03.491Z,36.90
2023-02-14T15:39:36.724Z,36.67
2023-02-14T15:42:05.954Z,36.83
2023-02-14T15:44:32.953Z,36.17
2023-02-14T15:47:03.796Z,35.80
2023-02-14T15:49:35.526Z,36.05
2023-02-14T15:52:04.917Z,36.53
2023-02-14T15:54:38.972Z,36.13
2023-02-14T15:57:16.463Z,36.90
2023-02-14T15:59:43.630Z,36.72
2023-02-14T16:02:17.138Z,35.78
2023-02-14T16:04:44.269Z,38.65
2023-02-14T16:07:22.867Z,39.75
2023-02-14T16:09:51.472Z,40.58
2023-02-14T16:12:36.271Z,38.88
2023-02-14T16:15:15.239Z,40.75
2023-02-14T16:17:44.043Z,39.67
2023-02-14T16:20:37.787Z,40.88
2023-02-14T16:23:20.294Z,42.28
2023-02-14T16:25:47.821Z,38.45
2023-02-14T16:28:14.730Z,42.95
2023-02-14T16:30:42.709Z,43.22
2023-02-14T16:33:30.114Z,43.83
2023-02-14T16:36:23.337Z,45.83
2023-02-14T16:38:50.766Z,47.13
2023-02-14T16:41:28.577Z,52.05
2023-02-14T16:43:56.348Z,46.45
2023-02-14T16:46:32.129Z,46.15
2023-02-14T16:48:59.900Z,48.85
2023-02-14T16:51:29.476Z,46.50
2023-02-14T16:53:59.315Z,46.65
2023-02-14T16:56:38.343Z,53.45
2023-02-14T16:59:05.192Z,45.47
2023-02-14T17:01:32.680Z,52.35
2023-02-14T17:04:00.170Z,48.72
2023-02-14T17:06:28.606Z,53.63
2023-02-14T17:08:57.394Z,59.47
2023-02-14T17:11:25.694Z,54.47
2023-02-14T17:13:54.595Z,53.50
2023-02-14T17:16:22.179Z,50.33
2023-02-14T17:18:51.790Z,51.75
2023-02-14T17:21:21.810Z,60.03
2023-02-14T17:23:48.543Z,53.83
2023-02-14T17:26:17.828Z,55.00
2023-02-14T17:28:46.380Z,57.42
2023-02-14T17:31:13.775Z,56.55
2023-02-14T17:33:40.818Z,60.80
2023-02-14T17:36:11.774Z,54.03
2023-02-14T17:38:39.245Z,52.42
2023-02-14T17:41:18.634Z,59.40
2023-02-14T17:43:46.143Z,69.53
2023-02-14T17:46:16.283Z,65.22
2023-02-14T17:51:13.051Z,56.92
2023-02-14T17:53:41.566Z,61.83
2023-02-14T17:56:24.273Z,64.85
2023-02-14T17:58:52.935Z,52.65
2023-02-14T18:01:26.736Z,55.90
2023-02-14T18:03:54.791Z,73.85
2023-02-14T18:06:22.058Z,51.92
2023-02-14T18:08:50.533Z,59.42
2023-02-14T18:11:19.240Z,47.40
2023-02-14T18:13:46.530Z,51.13
2023-02-14T18:16:16.200Z,58.20
2023-02-14T18:18:43.154Z,55.80
2023-02-14T18:21:13.079Z,48.35
2023-02-14T18:23:39.800Z,47.85
2023-02-14T18:26:11.899Z,48.42
2023-02-14T18:28:38.961Z,44.88
2023-02-14T18:31:17.106Z,45.60
2023-02-14T18:33:44.813Z,40.88
2023-02-14T18:36:14.678Z,46.25
2023-02-14T18:38:43.636Z,51.95
2023-02-14T18:41:13.824Z,44.60
2023-02-14T18:46:18.440Z,50.95
2023-02-14T18:48:45.268Z,68.47
2023-02-14T18:51:16.843Z,56.20
2023-02-14T18:53:44.914Z,53.60
2023-02-14T18:56:17.066Z,46.10
2023-02-14T18:58:50.617Z,43.13
2023-02-14T19:01:19.920Z,65.18
2023-02-14T19:03:47.101Z,76.17
2023-02-14T19:06:13.765Z,72.07
2023-02-14T19:08:40.918Z,45.55
2023-02-14T19:11:19.335Z,46.20
2023-02-14T19:13:51.177Z,47.00
2023-02-14T19:16:20.727Z,42.95
2023-02-14T19:18:49.677Z,44.88
2023-02-14T19:21:21.865Z,48.58
2023-02-14T19:23:49.583Z,43.03
2023-02-14T19:26:19.147Z,43.85
2023-02-14T19:28:47.442Z,39.55
2023-02-14T19:31:15.454Z,45.25
2023-02-14T19:33:44.450Z,48.70
2023-02-14T19:36:13.540Z,99.57
2023-02-14T19:38:41.887Z,37.80
2023-02-14T19:41:34.705Z,42.38
2023-02-14T19:44:04.529Z,62.50
2023-02-14T19:46:31.632Z,44.03
2023-02-14T19:48:58.919Z,34.55
2023-02-14T19:51:31.164Z,36.22
2023-02-14T19:54:00.155Z,37.03
2023-02-14T19:56:29.653Z,37.08
2023-02-14T19:58:57.178Z,52.58
2023-02-14T20:01:41.456Z,49.97
2023-02-14T20:04:11.184Z,39.92
2023-02-14T20:06:38.486Z,45.88
2023-02-14T20:09:06.221Z,37.53
2023-02-14T20:11:38.991Z,39.47
2023-02-14T20:14:06.586Z,40.05
2023-02-14T20:16:35.004Z,34.05
2023-02-14T20:19:02.901Z,38.00
2023-02-14T20:21:29.744Z,38.08
2023-02-14T20:24:03.579Z,35.30
2023-02-14T20:26:32.746Z,34.15
2023-02-14T20:29:01.033Z,34.43
2023-02-14T20:31:27.814Z,32.40
2023-02-14T20:33:55.907Z,35.25
2023-02-14T20:36:23.691Z,39.63
2023-02-14T20:39:01.600Z,31.98
2023-02-14T20:41:29.356Z,34.75
2023-02-14T20:44:03.337Z,36.00
2023-02-14T20:46:31.048Z,32.15
2023-02-14T20:48:57.745Z,34.45
2023-02-14T20:51:24.532Z,30.58
2023-02-14T20:53:51.312Z,30.05
2023-02-14T20:56:18.370Z,32.17
2023-02-14T20:58:45.510Z,30.73
2023-02-14T21:01:14.656Z,40.47
2023-02-14T21:03:43.114Z,31.00
2023-02-14T21:06:14.072Z,29.40
2023-02-14T21:08:42.455Z,31.45
2023-02-14T21:11:10.993Z,45.03
2023-02-14T21:13:37.721Z,31.83
2023-02-14T21:16:06.310Z,45.67
2023-02-14T21:18:34.049Z,31.75
2023-02-14T21:21:36.065Z,30.70
2023-02-14T21:24:07.028Z,30.23
2023-02-14T21:26:34.228Z,29.65
2023-02-14T21:29:01.548Z,31.38
2023-02-14T21:31:28.472Z,29.85
2023-02-14T21:33:58.396Z,30.30
2023-02-14T21:36:27.685Z,29.67
2023-02-14T21:38:58.305Z,29.23
2023-02-14T21:41:28.725Z,29.02
2023-02-14T21:43:56.448Z,27.42
2023-02-14T21:46:27.384Z,27.30
2023-02-14T21:49:14.266Z,26.80
2023-02-14T21:51:41.709Z,26.67
2023-02-14T21:54:09.369Z,25.75
2023-02-14T21:56:37.103Z,26.95
2023-02-14T21:59:04.484Z,26.05
2023-02-14T22:01:34.967Z,29.27
2023-02-14T22:04:02.823Z,27.77
2023-02-14T22:06:29.555Z,27.73
2023-02-14T22:09:00.608Z,24.55
2023-02-14T22:11:28.511Z,23.77
2023-02-14T22:13:56.271Z,25.55
2023-02-14T22:16:24.649Z,26.25
2023-02-14T22:18:52.157Z,25.70
2023-02-14T22:21:23.962Z,25.25
2023-02-14T22:23:50.875Z,25.55
2023-02-14T22:26:26.367Z,26.17
2023-02-14T22:28:56.921Z,26.38
2023-02-14T22:31:25.207Z,26.38
2023-02-14T22:33:51.929Z,26.52
2023-02-14T22:36:18.615Z,26.58
2023-02-14T22:38:45.286Z,27.48
2023-02-14T22:41:20.937Z,25.05
2023-02-14T22:43:48.199Z,24.88
2023-02-14T22:46:20.632Z,24.63
2023-02-14T22:48:49.337Z,24.77
2023-02-14T22:51:24.852Z,25.50
2023-02-14T22:53:55.040Z,23.83
2023-02-14T22:58:57.621Z,26.70
2023-02-14T23:01:24.933Z,29.17
2023-02-14T23:03:56.949Z,28.42
2023-02-14T23:06:25.392Z,30.63
2023-02-14T23:08:53.402Z,26.05
2023-02-14T23:11:25.894Z,25.58
2023-02-14T23:14:12.008Z,26.83
2023-02-14T23:16:57.662Z,24.20
2023-02-14T23:19:45.710Z,23.25
2023-02-14T23:22:15.759Z,23.05
2023-02-14T23:24:42.936Z,23.23
2023-02-14T23:27:09.813Z,22.77
2023-02-14T23:29:37.590Z,21.58
2023-02-14T23:32:06.467Z,23.05
2023-02-14T23:34:35.232Z,21.05
2023-02-14T23:37:02.214Z,23.00
2023-02-14T23:39:31.791Z,22.83
2023-02-14T23:41:58.525Z,21.88
2023-02-14T23:44:27.370Z,21.20
2023-02-14T23:46:56.605Z,21.00
2023-02-14T23:49:24.168Z,19.43
2023-02-14T23:51:52.683Z,20.05
2023-02-14T23:54:20.513Z,20.98
2023-02-14T23:56:47.821Z,21.08
2023-02-14T23:59:15.782Z,21.48
